Nearby METAR Reports


KEDC - Austin Exec, Texas, USA
Distance from station: SW 16mi, 25km
Updated: Sun, 20-Jan-2019 7:35am CST
Clear
Clear
 Wind from NNW
Wind: NNW 6 mph , 9 km/h
Temperature: 28°F , -2°C
Wind Chill: 21°F , -6°C
Dew Point: 23°F , -5°C
Humidity: 80%
Barometer: 30.41 inHg , 1029.8 hPa
Clouds: Clear
Visibility: 10 miles , 16 km
2019/01/20 13:35 KEDC 201335Z AUTO 33005KT 10SM CLR M02/M05 A3041 RMK AO2
KGTU - Georgetown, Texas, USA
Distance from station: WNW 17mi, 28km
Updated: Sun, 20-Jan-2019 6:56am CST
Clear
Clear
 Wind from W
Wind: W 5 mph , 7 km/h
Temperature: 27°F , -3°C
Wind Chill: 21°F , -6°C
Dew Point: 21°F , -6°C
Humidity: 80%
Barometer: 30.41 inHg , 1029.8 hPa
Clouds: Clear
Visibility: 10 miles , 16 km
2019/01/20 12:56 KGTU 201256Z 28004KT 10SM CLR M03/M06 A3041 RMK AO2 SLP305 T10281056
 
KATT - Austin/Mabry, Texas, USA
Distance from station: SW 28mi, 45km
Updated: Sun, 20-Jan-2019 6:51am CST
Clear
Clear
 Wind from NNW
Wind: NNW 5 mph , 7 km/h
Temperature: 32°F , 0°C
Wind Chill: 27°F , -3°C
Dew Point: 21°F , -6°C
Humidity: 64%
Barometer: 30.40 inHg , 1029.5 hPa
Clouds: Clear
Visibility: 10 miles , 16 km
2019/01/20 12:51 KATT 201251Z AUTO 34004KT 10SM CLR 00/M06 A3040 RMK AO2 SLP302 T00001061
KAUS - Austin, Texas, USA
Distance from station: SSW 32mi, 51km
Updated: Sun, 20-Jan-2019 6:53am CST
Clear
Clear
 Wind from N
Wind: N 8 mph , 13 km/h
Temperature: 34°F , 1°C
Wind Chill: 27°F , -3°C
Dew Point: 21°F , -6°C
Humidity: 60%
Barometer: 30.39 inHg , 1029.1 hPa
Clouds: Clear
Visibility: 10 miles , 16 km
2019/01/20 12:53 KAUS 201253Z 35007KT 10SM CLR 01/M06 A3039 RMK AO2 SLP298 T00061056
 
KRYW - Lago Vista, Texas, USA
Distance from station: W 33mi, 54km
Updated: Sun, 20-Jan-2019 7:35am CST
Clear
Clear
 Wind from WNW
Wind: WNW 6 mph , 9 km/h
Temperature: 30°F , -1°C
Wind Chill: 24°F , -4°C
Dew Point: 23°F , -5°C
Humidity: 75%
Barometer: 30.38 inHg , 1028.8 hPa
Clouds: Clear
Visibility: 10 miles , 16 km
2019/01/20 13:35 KRYW 201335Z AUTO 29005KT 10SM CLR M01/M05 A3038 RMK AO2 T10071055
KILE - Killeen Muni, Texas, USA
Distance from station: NNW 37mi, 59km
Updated: Sun, 20-Jan-2019 6:56am CST
Clear
Clear
 Wind from NW
Wind: NW 3 mph , 6 km/h
Barometer: 30.39 inHg , 1029.1 hPa
Clouds: Clear
Visibility: 10 miles , 16 km
2019/01/20 12:56 KILE 201256Z AUTO 32003KT 10SM CLR A3039 RMK AO2 SLPNO FZRANO $
 
KTPL - Temple/Miller, Texas, USA
Distance from station: N 38mi, 61km
Updated: Sun, 20-Jan-2019 6:51am CST
Clear
Clear
 Wind from WNW
Wind: WNW 6 mph , 9 km/h
Temperature: 28°F , -2°C
Wind Chill: 21°F , -6°C
Dew Point: 21°F , -6°C
Humidity: 74%
Barometer: 30.40 inHg , 1029.5 hPa
Clouds: Clear
Visibility: 10 miles , 16 km
2019/01/20 12:51 KTPL 201251Z AUTO 29005KT 10SM CLR M02/M06 A3040 RMK AO2 SLP311 T10221056 FZRANO
KGYB - Giddings-Lee, Texas, USA
Distance from station: SE 39mi, 62km
Updated: Sun, 20-Jan-2019 7:35am CST
Clear
Clear
 Wind from N
Wind: N 3 mph , 6 km/h
Temperature: 30°F , -1°C
Dew Point: 25°F , -4°C
Humidity: 80%
Barometer: 30.40 inHg , 1029.5 hPa
Clouds: Clear
Visibility: 10 miles , 16 km
2019/01/20 13:35 KGYB 201335Z AUTO 01003KT 10SM CLR M01/M04 A3040 RMK AO2 T10111045
 
KGRK - Gray/Ft Hood, Texas, USA
Distance from station: NW 42mi, 67km
Updated: Sun, 20-Jan-2019 7:36am CST
Haze, Clear
Haze, Clear
 Wind from N
Wind: N 5 mph , 7 km/h
Temperature: 27°F , -3°C
Wind Chill: 21°F , -6°C
Dew Point: 19°F , -7°C
Humidity: 74%
Barometer: 30.36 inHg , 1028.1 hPa
Summary: Haze
Clouds: Clear
Visibility: 2 3/4 miles , 5 km
2019/01/20 13:36 KGRK 201336Z AUTO 36004KT 2 3/4SM HZ CLR M03/M07 A3036 RMK AO2 VIS 2 3/4V5 SLP290
KHLR - Ft Hood/Killeen, Texas, USA
Distance from station: NNW 42mi, 67km
Updated: Sun, 20-Jan-2019 6:58am CST
Clear
Clear
 Wind from NW
Wind: NW 3 mph , 6 km/h
Temperature: 27°F , -3°C
Dew Point: 21°F , -6°C
Humidity: 80%
Barometer: 30.34 inHg , 1027.4 hPa
Clouds: Clear
Visibility: 10 miles , 16 km
2019/01/20 12:58 KHLR 201258Z AUTO 32003KT 10SM CLR M03/M06 A3034 RMK AO2 SLP280 T10301063
 
KRWV - Caldwell, Texas, USA
Distance from station: E 43mi, 69km
Updated: Sun, 20-Jan-2019 7:35am CST
Clear
Clear
 Wind from NW
Wind: NW 6 mph , 9 km/h
Temperature: 28°F , -2°C
Wind Chill: 21°F , -6°C
Dew Point: 23°F , -5°C
Humidity: 80%
Barometer: 30.42 inHg , 1030.1 hPa
Clouds: Clear
Visibility: 10 miles , 16 km
2019/01/20 13:35 KRWV 201335Z AUTO 32005KT 10SM CLR M02/M05 A3042 RMK AO2 T10201052
KBMQ - Burnet, Texas, USA
Distance from station: WNW 50mi, 80km
Updated: Sun, 20-Jan-2019 6:53am CST
Clear
Clear
 Wind from WSW
Wind: WSW 5 mph , 7 km/h
Temperature: 28°F , -2°C
Wind Chill: 22°F , -6°C
Dew Point: 19°F , -7°C
Humidity: 69%
Barometer: 30.38 inHg , 1028.8 hPa
Clouds: Clear
Visibility: 10 miles , 16 km
2019/01/20 12:53 KBMQ 201253Z AUTO 25004KT 10SM CLR M02/M07 A3038 RMK AO2 SLP293 T10221067